Nearby METAR Reports

 

KLEX - Lexington, Kentucky, USA
Distance from station: WNW 7mi, 11km
Updated: Tue, 18-Dec-2018 6:54am EST
Clear
Clear
 Wind from calm
Wind: Calm
Temperature: 30°F , -1°C
Dew Point: 25°F , -4°C
Humidity: 80%
Barometer: 30.22 inHg , 1023.4 hPa
Clouds: Clear
Visibility: 9 miles , 14 km
2018/12/18 11:54 KLEX 181154Z 00000KT 9SM CLR M01/M04 A3022 RMK AO2 SLP238 I1000 I6000 T10111044 10011 21022 51009
KFFT - Frankfort, Kentucky, USA
Distance from station: WNW 26mi, 42km
Updated: Tue, 18-Dec-2018 6:53am EST
Clear
Clear
 Wind from calm
Wind: Calm
Temperature: 27°F , -3°C
Dew Point: 23°F , -5°C
Humidity: 86%
Barometer: 30.22 inHg , 1023.4 hPa
Clouds: Clear
Visibility: 10 miles , 16 km
2018/12/18 11:53 KFFT 181153Z AUTO 00000KT 10SM CLR M03/M05 A3022 RMK AO2 SLP240 I6001 T10331050 11011 21044 53009
 
KIOB - Mount Sterling, Kentucky, USA
Distance from station: E 27mi, 44km
Updated: Tue, 18-Dec-2018 7:35am EST
Clear
Clear
 Wind from calm
Wind: Calm
Temperature: 27°F , -3°C
Dew Point: 27°F , -3°C
Humidity: 100%
Barometer: 30.24 inHg , 1024 hPa
Clouds: Clear
Visibility: 10 miles , 16 km
2018/12/18 12:35 KIOB 181235Z AUTO 00000KT 10SM CLR M03/M03 A3024 RMK AO2
KDVK - Danville, Kentucky, USA
Distance from station: SSW 33mi, 53km
Updated: Tue, 18-Dec-2018 7:15am EST
Clear
Clear
 Wind from calm
Wind: Calm
Temperature: 28°F , -2°C
Dew Point: 28°F , -2°C
Humidity: 100%
Barometer: 30.22 inHg , 1023.4 hPa
Clouds: Clear
Visibility: 10 miles , 16 km
2018/12/18 12:15 KDVK 181215Z AUTO 00000KT 10SM CLR M02/M02 A3022 RMK AO2